Time;durP1;ratioP1;P1;durP2;ratioP2;P2;SDS_P1;SDS_P2;PMS_P1;PMS_P2;Temp;Humidity;BMP_temperature;BMP_pressure;BME280_temperature;BME280_humidity;BME280_pressure;Samples;Min_cycle;Max_cycle;Signal;HPM_P1;HPM_P2
2021/12/29 00:02:21;;;;;;;13.17;12.27;;;10.50;99.90;;;;;;5051221;28;20452;-76
2021/12/29 00:04:48;;;;;;;12.40;11.60;;;10.40;99.90;;;;;;5051240;28;20938;-77
2021/12/29 00:07:15;;;;;;;13.23;12.13;;;10.40;99.90;;;;;;5050937;28;20448;-77
2021/12/29 00:09:42;;;;;;;12.33;11.40;;;10.40;99.90;;;;;;5051142;28;20452;-76
2021/12/29 00:12:09;;;;;;;12.10;11.40;;;10.40;99.90;;;;;;5051050;28;20455;-77
2021/12/29 00:14:38;;;;;;;11.80;11.20;;;10.40;99.90;;;;;;5051180;28;20451;-76
2021/12/29 00:17:05;;;;;;;12.30;11.57;;;10.40;99.90;;;;;;5051113;28;21012;-75
2021/12/29 00:19:31;;;;;;;11.67;11.07;;;10.40;99.90;;;;;;5050961;28;20928;-76
2021/12/29 00:21:58;;;;;;;11.50;11.00;;;10.50;99.90;;;;;;5050786;28;20945;-78
2021/12/29 00:24:25;;;;;;;11.37;10.70;;;10.60;99.90;;;;;;5050959;28;20491;-78
2021/12/29 00:26:52;;;;;;;11.63;11.13;;;10.50;99.90;;;;;;5050793;28;20440;-78
2021/12/29 00:29:19;;;;;;;11.30;10.80;;;10.60;99.90;;;;;;5051161;28;20449;-77
2021/12/29 00:31:47;;;;;;;12.73;11.93;;;10.50;99.90;;;;;;5050903;28;20454;-78
2021/12/29 00:34:14;;;;;;;13.00;12.20;;;10.60;99.90;;;;;;5050666;28;20452;-78
2021/12/29 00:36:40;;;;;;;13.67;12.47;;;10.60;99.90;;;;;;5050306;28;20506;-77
2021/12/29 00:39:07;;;;;;;11.97;11.40;;;10.60;99.90;;;;;;5050809;28;20452;-79
2021/12/29 00:41:34;;;;;;;11.40;10.90;;;10.60;99.90;;;;;;5050866;28;20451;-78
2021/12/29 00:44:01;;;;;;;11.63;11.23;;;10.60;99.90;;;;;;5050497;28;20455;-77
2021/12/29 00:46:27;;;;;;;11.43;11.00;;;10.50;99.90;;;;;;5050138;28;20452;-77
2021/12/29 00:48:56;;;;;;;11.87;11.17;;;10.60;99.90;;;;;;5050468;28;20474;-77
2021/12/29 00:51:23;;;;;;;11.93;11.20;;;10.50;99.90;;;;;;5050467;28;20456;-78
2021/12/29 00:53:50;;;;;;;11.90;11.40;;;10.60;99.90;;;;;;5051007;28;20444;-77
2021/12/29 00:56:16;;;;;;;11.60;11.10;;;10.50;99.90;;;;;;5050581;28;20452;-77
2021/12/29 00:58:44;;;;;;;12.60;11.90;;;10.60;99.90;;;;;;5049938;28;20499;-77
2021/12/29 01:01:11;;;;;;;12.23;11.67;;;10.50;99.90;;;;;;5050570;28;20559;-76
2021/12/29 01:03:38;;;;;;;13.40;12.20;;;10.50;99.90;;;;;;5050298;28;20506;-76
2021/12/29 01:06:07;;;;;;;12.37;11.87;;;10.40;99.90;;;;;;5050631;28;20456;-76
2021/12/29 01:08:34;;;;;;;12.83;12.10;;;10.30;99.90;;;;;;5050493;28;20444;-76
2021/12/29 01:11:01;;;;;;;13.50;12.60;;;10.20;99.90;;;;;;5050714;28;20499;-76
2021/12/29 01:13:31;;;;;;;13.00;12.10;;;10.20;99.90;;;;;;5050237;28;20444;-76
2021/12/29 01:16:15;;;;;;;12.23;11.73;;;10.10;99.90;;;;;;5050243;28;20452;-76
2021/12/29 01:18:44;;;;;;;12.70;12.20;;;10.20;99.90;;;;;;5050218;28;20514;-77
2021/12/29 01:21:12;;;;;;;11.83;11.43;;;10.20;99.90;;;;;;5050212;28;20479;-76
2021/12/29 01:23:39;;;;;;;12.20;11.70;;;10.20;99.90;;;;;;5050185;28;20453;-76
2021/12/29 01:26:06;;;;;;;11.60;11.20;;;10.30;99.90;;;;;;5050286;28;20456;-77
2021/12/29 01:28:32;;;;;;;11.20;10.83;;;10.30;99.90;;;;;;5050047;28;20957;-77
2021/12/29 01:30:59;;;;;;;12.20;11.60;;;10.30;99.90;;;;;;5050118;28;20459;-76
2021/12/29 01:33:26;;;;;;;11.87;11.27;;;10.30;99.90;;;;;;5049997;28;21001;-77
2021/12/29 01:35:52;;;;;;;11.90;11.40;;;10.40;99.90;;;;;;5050005;28;20472;-77
2021/12/29 01:38:21;;;;;;;11.40;11.00;;;10.40;99.90;;;;;;5050204;28;20488;-77
2021/12/29 01:40:49;;;;;;;11.30;10.90;;;10.40;99.90;;;;;;5050262;28;20475;-77
2021/12/29 01:43:17;;;;;;;11.67;11.07;;;10.40;99.90;;;;;;5049837;28;20968;-77
2021/12/29 01:45:43;;;;;;;11.73;11.23;;;10.50;99.90;;;;;;5049993;28;20949;-77
2021/12/29 01:48:11;;;;;;;11.63;11.03;;;10.50;99.90;;;;;;5049660;28;20824;-78
2021/12/29 01:50:39;;;;;;;12.10;11.60;;;10.40;99.90;;;;;;5049846;28;20978;-77
2021/12/29 01:53:10;;;;;;;11.40;11.00;;;10.40;99.90;;;;;;5049938;28;20498;-77
2021/12/29 01:55:39;;;;;;;11.10;10.70;;;10.50;99.90;;;;;;5050080;28;20456;-77
2021/12/29 01:58:07;;;;;;;10.97;10.67;;;10.50;99.90;;;;;;5051165;28;20487;-76
2021/12/29 02:00:36;;;;;;;11.53;11.03;;;10.60;99.90;;;;;;5053809;28;20452;-76
2021/12/29 02:03:03;;;;;;;11.17;10.77;;;10.50;99.90;;;;;;5053759;28;20459;-76
2021/12/29 02:05:30;;;;;;;11.40;10.90;;;10.60;99.90;;;;;;5053655;28;20440;-76
2021/12/29 02:07:56;;;;;;;10.77;10.37;;;10.60;99.90;;;;;;5053235;28;20462;-77
2021/12/29 02:10:24;;;;;;;11.03;10.57;;;10.60;99.90;;;;;;5053260;28;20466;-77
2021/12/29 02:12:52;;;;;;;11.00;10.60;;;10.60;99.90;;;;;;5053587;28;20456;-77
2021/12/29 02:15:19;;;;;;;11.43;11.03;;;10.50;99.90;;;;;;5053631;28;20863;-77
2021/12/29 02:17:49;;;;;;;11.10;10.70;;;10.60;99.90;;;;;;5053167;28;20578;-76
2021/12/29 02:20:20;;;;;;;11.03;10.63;;;10.60;99.90;;;;;;5053905;28;20778;-76
2021/12/29 02:22:51;;;;;;;11.87;11.27;;;10.60;99.90;;;;;;5053393;28;21035;-76
2021/12/29 02:25:34;;;;;;;11.30;10.90;;;10.50;99.90;;;;;;5053629;28;20444;-76
2021/12/29 02:28:02;;;;;;;11.53;11.03;;;10.60;99.90;;;;;;5053290;28;20448;-76
2021/12/29 02:30:29;;;;;;;11.37;11.03;;;10.60;99.90;;;;;;5053127;28;20471;-75
2021/12/29 02:33:00;;;;;;;11.27;10.80;;;10.50;99.90;;;;;;5052995;28;20817;-76
2021/12/29 02:35:29;;;;;;;11.40;10.90;;;10.50;99.90;;;;;;5052850;28;20475;-76
2021/12/29 02:37:57;;;;;;;11.27;10.70;;;10.50;99.90;;;;;;5052902;28;20487;-75
2021/12/29 02:40:24;;;;;;;10.97;10.57;;;10.60;99.90;;;;;;5052980;28;20462;-76
2021/12/29 02:42:50;;;;;;;11.07;10.67;;;10.60;99.90;;;;;;5053085;28;20471;-75
2021/12/29 02:45:21;;;;;;;11.50;11.00;;;10.50;99.90;;;;;;5052895;28;20452;-75
2021/12/29 02:47:49;;;;;;;10.67;10.27;;;10.50;99.90;;;;;;5052699;28;20478;-75
2021/12/29 02:50:18;;;;;;;11.20;10.80;;;10.60;99.90;;;;;;5052835;28;20463;-76
2021/12/29 02:52:47;;;;;;;11.27;10.70;;;10.60;99.90;;;;;;5052826;28;20470;-76
2021/12/29 02:55:15;;;;;;;11.10;10.70;;;10.60;99.90;;;;;;5052637;28;20448;-76
2021/12/29 02:57:42;;;;;;;11.03;10.63;;;10.70;99.90;;;;;;5052153;28;20494;-75
2021/12/29 03:00:13;;;;;;;10.80;10.40;;;10.70;99.90;;;;;;5052868;28;20444;-74
2021/12/29 03:02:39;;;;;;;11.43;11.03;;;10.80;99.90;;;;;;5052506;28;20444;-76
2021/12/29 03:05:07;;;;;;;11.60;11.00;;;10.70;99.90;;;;;;5052518;28;20523;-76
2021/12/29 03:07:33;;;;;;;11.33;10.73;;;10.60;99.90;;;;;;5052478;28;20444;-75
2021/12/29 03:10:01;;;;;;;11.43;10.93;;;10.60;99.90;;;;;;5051526;28;20455;-75
2021/12/29 03:12:28;;;;;;;11.80;11.30;;;10.60;99.90;;;;;;5052405;28;20455;-75
2021/12/29 03:14:58;;;;;;;10.50;10.20;;;10.70;99.90;;;;;;5052177;28;20463;-75
2021/12/29 03:17:25;;;;;;;10.50;10.10;;;10.70;99.90;;;;;;5052026;28;20921;-76
2021/12/29 03:19:52;;;;;;;10.73;10.33;;;10.70;99.90;;;;;;5051833;28;20483;-76
2021/12/29 03:22:20;;;;;;;11.17;10.70;;;10.70;99.90;;;;;;5052321;28;20459;-76
2021/12/29 03:24:47;;;;;;;11.17;10.77;;;10.70;99.90;;;;;;5052227;28;20451;-76
2021/12/29 03:27:15;;;;;;;10.67;10.37;;;10.70;99.90;;;;;;5052064;28;20455;-76
2021/12/29 03:29:41;;;;;;;11.20;10.80;;;10.70;99.90;;;;;;5051869;28;20989;-75
2021/12/29 03:32:10;;;;;;;10.93;10.40;;;10.80;99.90;;;;;;5051702;28;20941;-75
2021/12/29 03:34:37;;;;;;;11.00;10.70;;;10.80;99.90;;;;;;5051756;28;20869;-76
2021/12/29 03:37:04;;;;;;;11.20;10.80;;;10.80;99.90;;;;;;5052337;28;20482;-75
2021/12/29 03:39:38;;;;;;;11.67;11.20;;;10.80;99.90;;;;;;5051918;28;20488;-75
2021/12/29 03:42:06;;;;;;;11.00;10.60;;;10.80;99.90;;;;;;5051749;28;20448;-77
2021/12/29 03:44:34;;;;;;;11.03;10.53;;;10.80;99.90;;;;;;5051579;28;21027;-78
2021/12/29 03:47:01;;;;;;;11.00;10.70;;;10.80;99.90;;;;;;5051616;28;20480;-78
2021/12/29 03:49:28;;;;;;;10.77;10.47;;;10.80;99.90;;;;;;5051447;28;20453;-77
2021/12/29 03:51:54;;;;;;;10.87;10.47;;;10.90;99.90;;;;;;5051726;28;20450;-75
2021/12/29 03:54:21;;;;;;;11.30;10.90;;;10.90;99.90;;;;;;5051505;28;20463;-76
2021/12/29 03:56:48;;;;;;;10.87;10.47;;;10.90;99.90;;;;;;5051675;28;20448;-76
2021/12/29 03:59:15;;;;;;;11.23;10.73;;;10.80;99.90;;;;;;5051554;28;20484;-75
2021/12/29 04:01:44;;;;;;;11.10;10.80;;;10.90;99.90;;;;;;5051367;28;20885;-76
2021/12/29 04:04:10;;;;;;;10.30;10.00;;;10.80;99.90;;;;;;5051194;28;20864;-76
2021/12/29 04:06:37;;;;;;;11.77;11.20;;;10.80;99.90;;;;;;5051430;28;20452;-75
2021/12/29 04:09:05;;;;;;;11.40;11.00;;;10.80;99.90;;;;;;5051586;28;20444;-75
2021/12/29 04:11:31;;;;;;;11.17;10.87;;;10.80;99.90;;;;;;5051433;28;20875;-76
2021/12/29 04:13:58;;;;;;;11.20;10.90;;;10.80;99.90;;;;;;5050830;28;20451;-76
2021/12/29 04:16:25;;;;;;;11.43;10.93;;;10.80;99.90;;;;;;5050986;28;20451;-76
2021/12/29 04:19:14;;;;;;;11.87;11.47;;;10.80;99.90;;;;;;5050873;28;20570;-76
2021/12/29 04:21:46;;;;;;;13.40;13.00;;;10.70;99.90;;;;;;5050865;28;20852;-76
2021/12/29 04:24:13;;;;;;;13.80;13.40;;;10.60;99.90;;;;;;5051034;28;20452;-76
2021/12/29 04:26:40;;;;;;;16.13;15.53;;;10.50;99.90;;;;;;5050838;28;20463;-77
2021/12/29 04:29:08;;;;;;;16.07;15.57;;;10.30;99.90;;;;;;5050914;28;20455;-74
2021/12/29 04:31:35;;;;;;;16.47;15.80;;;10.20;99.90;;;;;;5050852;28;20497;-75
2021/12/29 04:34:04;;;;;;;16.43;15.93;;;10.20;99.90;;;;;;5051016;28;20799;-79
2021/12/29 04:36:30;;;;;;;18.10;17.43;;;10.10;99.90;;;;;;5050914;28;20476;-75
2021/12/29 04:38:58;;;;;;;18.03;17.30;;;10.00;99.90;;;;;;5050640;28;20484;-76
2021/12/29 04:41:25;;;;;;;18.90;18.20;;;9.90;99.90;;;;;;5050399;28;20768;-76
2021/12/29 04:43:52;;;;;;;19.80;18.90;;;9.80;99.90;;;;;;5050665;28;20936;-76
2021/12/29 04:46:26;;;;;;;19.57;18.80;;;9.80;99.90;;;;;;5050765;28;20454;-75
2021/12/29 04:48:59;;;;;;;19.60;18.90;;;9.70;99.90;;;;;;5050613;28;20932;-76
2021/12/29 04:51:34;;;;;;;19.30;18.60;;;9.80;99.90;;;;;;5052068;28;20512;-75
2021/12/29 04:54:01;;;;;;;20.10;19.20;;;9.80;99.90;;;;;;5051900;28;20855;-76
2021/12/29 04:56:28;;;;;;;20.33;19.60;;;9.90;99.90;;;;;;5050222;28;20950;-76
2021/12/29 04:58:54;;;;;;;20.30;19.60;;;9.90;99.90;;;;;;5050190;28;20488;-76
2021/12/29 05:01:21;;;;;;;20.63;19.83;;;9.90;99.90;;;;;;5050251;28;20952;-75
2021/12/29 05:03:48;;;;;;;21.40;20.60;;;9.80;99.90;;;;;;5050531;28;20499;-75
2021/12/29 05:09:00;;;;;;;21.07;20.27;;;9.90;99.90;;;;;;5050549;28;20555;-75
2021/12/29 05:11:27;;;;;;;22.20;21.20;;;9.80;99.90;;;;;;5050731;28;20455;-75
2021/12/29 05:13:55;;;;;;;21.17;20.37;;;9.80;99.90;;;;;;5050717;28;20508;-75
2021/12/29 05:16:22;;;;;;;21.17;20.37;;;9.80;99.90;;;;;;5050617;28;20456;-75
2021/12/29 05:18:49;;;;;;;22.07;21.17;;;9.90;99.90;;;;;;5050151;28;20526;-75
2021/12/29 05:21:15;;;;;;;22.63;21.37;;;9.90;99.90;;;;;;5050521;28;20452;-75
2021/12/29 05:23:42;;;;;;;22.17;21.17;;;9.90;99.90;;;;;;5050225;28;20945;-75
2021/12/29 05:26:10;;;;;;;21.63;20.77;;;9.90;99.90;;;;;;5050334;28;20452;-74
2021/12/29 05:28:37;;;;;;;22.20;21.30;;;9.90;99.90;;;;;;5049861;28;20448;-74
2021/12/29 05:31:03;;;;;;;20.40;19.60;;;9.70;99.90;;;;;;5050206;28;20480;-75
2021/12/29 05:33:30;;;;;;;21.40;20.40;;;9.80;99.90;;;;;;5052030;28;20447;-77
2021/12/29 05:35:57;;;;;;;22.03;21.13;;;9.70;99.90;;;;;;5053813;28;20474;-75
2021/12/29 05:38:24;;;;;;;22.77;21.77;;;9.60;99.90;;;;;;5053894;28;20494;-74
2021/12/29 05:40:52;;;;;;;21.77;20.77;;;9.50;99.90;;;;;;5054042;28;20456;-74
2021/12/29 05:43:20;;;;;;;22.30;21.40;;;9.50;99.90;;;;;;5054123;28;20513;-74
2021/12/29 05:45:47;;;;;;;22.33;21.43;;;9.40;99.90;;;;;;5054265;28;20447;-74
2021/12/29 05:48:13;;;;;;;22.23;21.27;;;9.40;99.90;;;;;;5053232;28;20486;-74
2021/12/29 05:50:40;;;;;;;22.40;21.40;;;9.30;99.90;;;;;;5054199;28;20452;-75
2021/12/29 05:53:07;;;;;;;22.43;21.53;;;9.20;99.90;;;;;;5053856;28;20456;-75
2021/12/29 05:55:35;;;;;;;22.20;21.10;;;9.20;99.90;;;;;;5054137;28;20456;-75
2021/12/29 05:58:02;;;;;;;22.50;21.60;;;9.10;99.90;;;;;;5053615;28;20448;-76
2021/12/29 06:00:32;;;;;;;23.30;22.20;;;9.10;99.90;;;;;;5053921;28;20448;-76
2021/12/29 06:02:58;;;;;;;24.03;22.90;;;9.20;99.90;;;;;;5054028;28;20461;-74
2021/12/29 06:05:25;;;;;;;24.47;23.17;;;9.20;99.90;;;;;;5053639;28;20450;-75
2021/12/29 06:07:52;;;;;;;23.40;22.30;;;9.20;99.90;;;;;;5053801;28;20455;-75
2021/12/29 06:10:19;;;;;;;24.00;22.63;;;9.20;99.90;;;;;;5053526;28;20444;-74
2021/12/29 06:12:46;;;;;;;23.83;22.60;;;9.10;99.90;;;;;;5053811;28;20448;-76
2021/12/29 06:15:14;;;;;;;23.50;22.40;;;9.10;99.90;;;;;;5053502;28;20796;-75
2021/12/29 06:17:42;;;;;;;24.47;23.20;;;9.10;99.90;;;;;;5053166;28;20804;-75
2021/12/29 06:20:12;;;;;;;24.83;23.17;;;9.10;99.90;;;;;;5053295;28;20487;-76
2021/12/29 06:22:39;;;;;;;24.57;23.10;;;9.10;99.90;;;;;;5052974;28;20456;-76
2021/12/29 06:25:08;;;;;;;24.63;23.30;;;9.00;99.90;;;;;;5053561;28;20456;-75
2021/12/29 06:27:35;;;;;;;24.20;22.93;;;9.00;99.90;;;;;;5057193;28;20472;-75
2021/12/29 06:30:01;;;;;;;23.47;22.47;;;9.00;99.90;;;;;;5055223;28;20447;-74
2021/12/29 06:32:28;;;;;;;22.80;21.80;;;9.00;99.90;;;;;;5052670;28;20455;-73
2021/12/29 06:34:56;;;;;;;22.87;21.93;;;9.00;99.90;;;;;;5053002;28;20479;-75
2021/12/29 06:37:24;;;;;;;23.93;22.10;;;9.00;99.90;;;;;;5053034;28;20454;-75
2021/12/29 06:39:51;;;;;;;22.90;21.77;;;9.00;99.90;;;;;;5052937;28;20495;-75
2021/12/29 06:42:19;;;;;;;22.43;21.20;;;9.00;99.90;;;;;;5052915;28;20448;-76
2021/12/29 06:44:47;;;;;;;22.60;21.17;;;9.00;99.90;;;;;;5051718;28;20470;-75
2021/12/29 06:47:14;;;;;;;22.70;21.40;;;9.00;99.90;;;;;;5052535;28;20477;-75
2021/12/29 06:49:41;;;;;;;22.70;21.20;;;9.10;99.90;;;;;;5052634;28;20452;-74
2021/12/29 06:52:09;;;;;;;21.63;20.50;;;9.10;99.90;;;;;;5052465;28;20448;-76
2021/12/29 06:54:37;;;;;;;20.60;19.50;;;9.20;99.90;;;;;;5052655;28;20441;-75
2021/12/29 06:57:05;;;;;;;21.53;20.23;;;9.20;99.90;;;;;;5052643;28;20459;-75
2021/12/29 06:59:32;;;;;;;21.93;21.03;;;9.20;99.90;;;;;;5052700;28;20485;-75
2021/12/29 07:01:58;;;;;;;20.53;19.73;;;9.20;99.90;;;;;;5052549;28;20467;-75
2021/12/29 07:04:25;;;;;;;20.50;19.60;;;9.30;99.90;;;;;;5052597;28;20865;-75
2021/12/29 07:06:52;;;;;;;21.07;20.17;;;9.30;99.90;;;;;;5052918;28;20456;-77
2021/12/29 07:09:21;;;;;;;20.50;19.40;;;9.40;99.90;;;;;;5052718;28;20445;-78
2021/12/29 07:11:48;;;;;;;19.67;18.77;;;9.40;99.90;;;;;;5052834;28;20448;-74
2021/12/29 07:14:15;;;;;;;20.37;19.57;;;9.40;99.90;;;;;;5049930;28;20449;-76
2021/12/29 07:16:44;;;;;;;21.20;20.30;;;9.40;99.90;;;;;;5050404;28;20865;-75
2021/12/29 07:19:11;;;;;;;22.00;21.00;;;9.50;99.90;;;;;;5052211;28;20994;-74
2021/12/29 07:21:38;;;;;;;20.90;20.00;;;9.60;99.90;;;;;;5051994;28;21024;-74
2021/12/29 07:24:05;;;;;;;22.33;21.33;;;9.60;99.90;;;;;;5052295;28;20518;-74
2021/12/29 07:26:34;;;;;;;21.83;20.90;;;9.50;99.90;;;;;;5051924;28;20452;-74
2021/12/29 07:29:01;;;;;;;21.43;20.53;;;9.50;99.90;;;;;;5052379;28;20811;-75
2021/12/29 07:31:28;;;;;;;22.57;21.57;;;9.60;99.90;;;;;;5051678;28;20455;-74
2021/12/29 07:33:55;;;;;;;22.27;21.37;;;9.70;99.90;;;;;;5051627;28;20484;-74
2021/12/29 07:36:22;;;;;;;23.07;22.10;;;9.70;99.90;;;;;;5051780;28;20494;-74
2021/12/29 07:38:49;;;;;;;23.40;22.40;;;9.70;99.90;;;;;;5051461;28;20467;-74
2021/12/29 07:41:16;;;;;;;22.17;20.97;;;9.80;99.90;;;;;;5051739;28;20440;-74
2021/12/29 07:43:45;;;;;;;21.80;20.80;;;9.70;99.90;;;;;;5043489;28;20541;-74
2021/12/29 07:46:13;;;;;;;22.40;21.30;;;9.70;99.90;;;;;;5051531;28;20455;-74
2021/12/29 07:48:40;;;;;;;21.90;21.00;;;9.70;99.90;;;;;;5051489;28;20537;-76
2021/12/29 07:51:07;;;;;;;22.40;21.40;;;9.70;99.90;;;;;;5051442;28;20454;-74
2021/12/29 07:53:37;;;;;;;22.50;21.30;;;9.80;99.90;;;;;;5051744;28;20441;-75
2021/12/29 07:56:05;;;;;;;22.37;21.50;;;9.90;99.90;;;;;;5051547;28;20452;-74
2021/12/29 07:58:33;;;;;;;22.60;21.60;;;9.70;99.90;;;;;;5051714;28;20444;-74
2021/12/29 08:01:01;;;;;;;22.50;21.47;;;9.60;99.90;;;;;;5051433;28;20491;-78
2021/12/29 08:03:28;;;;;;;21.03;20.23;;;9.60;99.90;;;;;;5054673;28;20448;-76
2021/12/29 08:05:55;;;;;;;22.40;21.50;;;9.70;99.90;;;;;;5054961;28;20877;-75
2021/12/29 08:08:22;;;;;;;22.13;21.33;;;9.70;99.90;;;;;;5051946;28;20976;-74
2021/12/29 08:10:49;;;;;;;22.80;21.73;;;9.70;99.90;;;;;;5051214;28;20452;-74
2021/12/29 08:13:16;;;;;;;22.40;21.40;;;9.70;99.90;;;;;;5050938;28;20440;-76
2021/12/29 08:15:42;;;;;;;23.70;22.30;;;9.80;99.90;;;;;;5050902;28;20449;-76
2021/12/29 08:18:10;;;;;;;22.63;21.47;;;9.80;99.90;;;;;;5050873;28;20452;-75
2021/12/29 08:20:37;;;;;;;22.50;21.40;;;9.80;99.90;;;;;;5050631;28;20492;-75
2021/12/29 08:23:05;;;;;;;23.53;22.53;;;9.90;99.90;;;;;;5051134;28;20459;-76
2021/12/29 08:25:32;;;;;;;23.47;22.20;;;9.90;99.90;;;;;;5051134;28;20452;-76
2021/12/29 08:27:59;;;;;;;23.13;22.13;;;9.90;99.90;;;;;;5051003;28;20513;-75
2021/12/29 08:30:27;;;;;;;23.10;22.00;;;9.80;99.90;;;;;;5050934;28;20869;-76
2021/12/29 08:32:54;;;;;;;22.80;21.80;;;9.70;99.90;;;;;;5050554;28;20957;-76
2021/12/29 08:35:24;;;;;;;22.67;21.63;;;9.60;99.90;;;;;;5050287;28;20472;-74
2021/12/29 08:37:51;;;;;;;21.97;20.93;;;9.60;99.90;;;;;;5050355;28;20850;-75
2021/12/29 08:40:18;;;;;;;21.70;20.70;;;9.40;99.90;;;;;;5050263;28;20497;-74
2021/12/29 08:42:47;;;;;;;22.70;21.50;;;9.50;99.90;;;;;;5050597;28;20460;-75
2021/12/29 08:45:15;;;;;;;22.87;21.67;;;9.60;99.90;;;;;;5050337;28;20467;-74
2021/12/29 08:47:42;;;;;;;22.57;21.47;;;9.70;99.90;;;;;;5041795;28;20989;-75
2021/12/29 08:50:12;;;;;;;22.33;21.23;;;9.70;99.90;;;;;;5050055;28;20817;-75
2021/12/29 08:52:40;;;;;;;21.90;20.90;;;9.80;99.90;;;;;;5050185;28;20455;-75
2021/12/29 08:55:55;;;;;;;22.13;21.00;;;9.70;99.90;;;;;;5050196;28;20459;-74
2021/12/29 08:58:24;;;;;;;21.50;20.30;;;9.60;99.90;;;;;;5036648;28;20514;-74
2021/12/29 09:00:51;;;;;;;20.37;19.47;;;9.70;99.90;;;;;;5050308;28;20494;-77
2021/12/29 09:03:18;;;;;;;20.47;19.50;;;9.70;99.90;;;;;;5050541;28;20450;-76
2021/12/29 09:05:45;;;;;;;20.03;19.13;;;9.70;99.90;;;;;;5050428;28;20934;-76
2021/12/29 09:08:13;;;;;;;19.67;18.73;;;9.70;99.90;;;;;;5049486;28;20456;-77
2021/12/29 09:10:41;;;;;;;20.10;19.20;;;9.70;99.90;;;;;;5050300;28;20452;-79
2021/12/29 09:13:07;;;;;;;18.80;18.00;;;9.70;99.90;;;;;;5050460;28;20467;-78
2021/12/29 09:15:34;;;;;;;19.07;18.07;;;9.70;99.90;;;;;;5050437;28;20475;-77
2021/12/29 09:18:01;;;;;;;19.10;18.20;;;9.70;99.90;;;;;;5050404;28;20458;-77
2021/12/29 09:20:30;;;;;;;17.40;16.70;;;9.80;99.90;;;;;;5049958;28;20491;-78
2021/12/29 09:23:00;;;;;;;17.10;16.40;;;9.80;99.90;;;;;;5050082;28;20455;-79
2021/12/29 09:25:29;;;;;;;17.63;16.90;;;9.80;99.90;;;;;;5050339;28;20455;-78
2021/12/29 09:27:56;;;;;;;18.97;17.80;;;9.90;99.90;;;;;;5050148;28;20446;-79
2021/12/29 09:30:26;;;;;;;16.30;15.60;;;10.00;99.90;;;;;;5049878;28;20448;-78
2021/12/29 09:32:54;;;;;;;17.53;16.73;;;10.10;99.90;;;;;;5050396;28;20455;-78
2021/12/29 09:35:20;;;;;;;16.50;15.80;;;10.30;99.90;;;;;;5050455;28;20474;-78
2021/12/29 09:37:48;;;;;;;17.40;16.50;;;10.40;99.90;;;;;;5050295;28;20480;-79
2021/12/29 09:40:16;;;;;;;17.73;16.83;;;10.40;99.90;;;;;;5049765;28;20483;-79
2021/12/29 09:42:45;;;;;;;16.87;15.90;;;10.50;99.90;;;;;;5049804;28;20444;-79
2021/12/29 09:45:12;;;;;;;16.77;16.07;;;10.50;99.90;;;;;;5049824;28;20462;-79
2021/12/29 09:47:39;;;;;;;15.43;14.53;;;10.50;99.90;;;;;;5049735;28;20515;-80
2021/12/29 09:50:08;;;;;;;15.37;14.87;;;10.50;99.90;;;;;;5049946;28;20444;-79
2021/12/29 09:52:35;;;;;;;16.90;16.10;;;10.50;99.90;;;;;;5049822;28;20440;-81
2021/12/29 09:55:04;;;;;;;16.50;15.80;;;10.60;99.90;;;;;;5049923;28;20866;-79
2021/12/29 09:57:31;;;;;;;16.83;15.83;;;10.80;99.90;;;;;;5049978;28;20460;-79
2021/12/29 10:00:00;;;;;;;14.67;13.87;;;10.90;99.90;;;;;;5049772;28;20496;-78
2021/12/29 10:02:26;;;;;;;16.13;15.43;;;11.00;99.90;;;;;;5049687;28;20498;-79
2021/12/29 10:04:56;;;;;;;15.07;14.47;;;11.10;99.90;;;;;;5049597;28;20808;-78
2021/12/29 10:07:23;;;;;;;15.83;14.63;;;11.40;99.90;;;;;;5049426;28;20555;-78
2021/12/29 10:09:50;;;;;;;15.23;14.40;;;11.60;99.90;;;;;;5049540;28;20961;-78
2021/12/29 10:12:20;;;;;;;14.80;14.20;;;11.90;99.90;;;;;;5049769;28;20455;-80
2021/12/29 10:14:53;;;;;;;14.50;13.80;;;11.90;99.90;;;;;;5049792;28;20448;-79
2021/12/29 10:17:25;;;;;;;14.83;14.13;;;12.00;99.90;;;;;;5049631;28;20448;-80
2021/12/29 10:20:01;;;;;;;14.20;13.50;;;12.10;99.90;;;;;;5051785;28;20479;-79
2021/12/29 10:22:28;;;;;;;13.77;12.97;;;12.10;99.90;;;;;;5053106;28;20447;-79
2021/12/29 10:25:04;;;;;;;14.00;12.90;;;12.10;99.90;;;;;;5052953;28;20448;-80
2021/12/29 10:27:31;;;;;;;12.87;12.37;;;11.80;99.90;;;;;;5053000;28;20459;-79
2021/12/29 10:29:58;;;;;;;13.70;12.90;;;11.80;99.90;;;;;;5052953;28;20448;-79
2021/12/29 10:32:26;;;;;;;13.47;12.97;;;11.60;99.90;;;;;;5052724;28;20455;-80
2021/12/29 10:34:55;;;;;;;13.60;12.90;;;11.40;99.90;;;;;;5052701;28;20480;-80
2021/12/29 10:37:23;;;;;;;12.47;11.97;;;11.30;99.90;;;;;;5052784;28;20509;-79
2021/12/29 10:39:55;;;;;;;12.57;12.00;;;11.30;99.90;;;;;;5052823;28;20488;-79
2021/12/29 10:42:24;;;;;;;12.27;11.50;;;11.30;99.90;;;;;;5052701;28;20490;-79
2021/12/29 10:44:53;;;;;;;14.17;12.20;;;11.40;99.90;;;;;;5052555;28;20452;-80
2021/12/29 10:47:22;;;;;;;12.60;11.80;;;11.60;99.90;;;;;;5052405;28;20482;-79
2021/12/29 10:49:54;;;;;;;12.27;11.57;;;11.60;99.90;;;;;;5052670;28;20821;-79
2021/12/29 10:52:32;;;;;;;12.63;12.17;;;11.60;99.90;;;;;;5052464;28;20475;-79
2021/12/29 10:54:59;;;;;;;11.60;11.20;;;11.60;99.90;;;;;;5052338;28;20475;-79
2021/12/29 10:57:26;;;;;;;11.87;11.27;;;11.70;99.90;;;;;;5052072;28;20482;-79
2021/12/29 10:59:57;;;;;;;12.93;12.20;;;11.80;99.90;;;;;;5052247;28;20474;-77
2021/12/29 11:02:27;;;;;;;11.00;10.60;;;11.80;99.90;;;;;;5052234;28;20506;-78
2021/12/29 11:05:00;;;;;;;12.20;11.60;;;11.90;99.90;;;;;;5052284;28;20459;-78
2021/12/29 11:07:29;;;;;;;12.37;11.53;;;11.80;99.90;;;;;;5051969;28;20447;-78
2021/12/29 11:09:56;;;;;;;12.47;11.97;;;11.80;99.90;;;;;;5052380;28;20452;-79
2021/12/29 11:12:25;;;;;;;12.93;12.40;;;11.70;99.90;;;;;;5052107;28;20514;-80
2021/12/29 11:14:53;;;;;;;13.17;12.37;;;11.70;99.90;;;;;;5051961;28;20460;-78
2021/12/29 11:17:26;;;;;;;12.53;11.90;;;11.70;99.90;;;;;;5052094;28;20871;-78
2021/12/29 11:19:56;;;;;;;13.13;12.40;;;11.80;99.90;;;;;;5051808;28;20452;-77
2021/12/29 11:22:27;;;;;;;13.70;12.70;;;11.70;99.90;;;;;;5052120;28;20794;-77
2021/12/29 11:24:56;;;;;;;12.97;12.37;;;11.80;99.90;;;;;;5051627;28;20459;-77
2021/12/29 11:27:23;;;;;;;13.03;12.43;;;12.00;99.90;;;;;;5051755;28;20452;-77
2021/12/29 11:29:53;;;;;;;12.63;11.93;;;12.00;99.90;;;;;;5051682;28;20507;-76
2021/12/29 11:32:24;;;;;;;13.50;12.40;;;12.00;99.90;;;;;;5051472;28;20452;-77
2021/12/29 11:35:10;;;;;;;13.10;12.40;;;12.00;99.90;;;;;;5051809;28;20456;-76
2021/12/29 11:37:40;;;;;;;12.20;11.80;;;12.10;99.90;;;;;;5051578;28;20954;-76
2021/12/29 11:40:08;;;;;;;12.20;11.60;;;12.10;99.90;;;;;;5052000;28;20475;-76
2021/12/29 11:42:35;;;;;;;11.30;10.90;;;12.10;99.90;;;;;;5051742;28;20452;-76
2021/12/29 11:45:04;;;;;;;10.57;10.17;;;12.20;99.90;;;;;;5051658;28;20459;-76
2021/12/29 11:47:30;;;;;;;11.53;11.03;;;12.20;99.90;;;;;;5051174;28;21020;-77
2021/12/29 11:49:57;;;;;;;11.50;10.77;;;12.10;99.90;;;;;;5051266;28;20448;-78
2021/12/29 11:52:55;;;;;;;11.23;10.93;;;12.10;99.90;;;;;;5051289;28;20451;-78
2021/12/29 11:55:30;;;;;;;11.40;10.90;;;12.10;99.90;;;;;;5051385;28;20495;-77
2021/12/29 11:58:08;;;;;;;11.83;11.33;;;12.00;99.90;;;;;;5051353;28;20554;-78
2021/12/29 12:00:35;;;;;;;11.93;11.40;;;12.10;99.90;;;;;;5051409;28;21029;-77
2021/12/29 12:03:07;;;;;;;12.47;11.83;;;12.20;99.90;;;;;;5051189;28;20444;-77
2021/12/29 12:05:36;;;;;;;12.20;11.33;;;12.20;99.90;;;;;;5051223;28;20448;-77
2021/12/29 12:08:07;;;;;;;12.03;11.30;;;12.20;99.90;;;;;;5051388;28;20448;-77
2021/12/29 12:10:37;;;;;;;11.90;11.40;;;12.10;99.90;;;;;;5050922;28;20506;-77
2021/12/29 12:13:07;;;;;;;12.63;11.40;;;12.20;99.90;;;;;;5051105;28;20452;-77
2021/12/29 12:15:38;;;;;;;12.10;11.60;;;12.30;99.90;;;;;;5051065;28;20448;-77
2021/12/29 12:18:07;;;;;;;12.73;11.93;;;12.50;99.90;;;;;;5051029;28;20447;-78
2021/12/29 12:20:42;;;;;;;12.00;11.50;;;12.60;99.90;;;;;;5051029;28;20471;-77
2021/12/29 12:23:15;;;;;;;11.97;11.37;;;12.80;99.90;;;;;;5050696;28;20451;-78
2021/12/29 12:25:43;;;;;;;12.17;11.57;;;12.80;99.90;;;;;;5050717;28;20455;-77
2021/12/29 12:28:16;;;;;;;12.07;11.57;;;12.70;99.90;;;;;;5050761;28;20452;-77
2021/12/29 12:30:46;;;;;;;12.10;11.20;;;12.50;99.90;;;;;;5050787;28;20455;-77
2021/12/29 12:33:14;;;;;;;12.20;11.30;;;12.40;99.90;;;;;;5050601;28;20942;-77
2021/12/29 12:35:43;;;;;;;12.30;11.40;;;12.20;99.90;;;;;;5050530;28;20472;-77
2021/12/29 12:38:17;;;;;;;12.53;11.83;;;12.30;99.90;;;;;;5050640;28;20459;-76
2021/12/29 12:40:45;;;;;;;12.63;11.93;;;12.40;99.90;;;;;;5050476;28;20479;-77